x

North Hecate Strait (46183) Wave Buoy

3:00pm - Sun 26th Mar 2017 All times are PDT. -7 hours from GMT.

  • Sig Wave height 8.2ft
  • Peak Period 10s
  • Wind
    22mph, 29mph gusts
  • Air Temp 44°f
  • Sea Pressure 997.1mb
  • North Hecate Strait
  • North Hecate Strait

More Historic Weather Station data

Upgrade to MSW Pro to gain access to the past 30 days of data for over 8000 Wavebouys and Weather Stations around the globe.

Join Pro

Comparision Forecast

View Surf forecast
   
Sun 03/26 3:00pm 8ft 10s 22 29 mph 997.1mb 44f
2:00pm 9ft 10s 22 27 mph 997.5mb 44f
1:00pm 8ft 9s 22 29 mph 998mb 44f
12:00pm 8.5ft 9s 22 27 mph 998.4mb 44f
11:00am 9ft 8s 22 27 mph 999.2mb 44f
9:00am 9ft 8s 27 34 mph 1000.2mb 44f
8:00am 9ft 8s 25 31 mph 1000.8mb 43f
7:00am 9ft 7s 27 36 mph 1001.6mb 43f
6:00am 9ft 8s 29 36 mph 1002.4mb 42f
5:00am 8.5ft 7s 29 36 mph 1003.2mb 40f
4:00am 7.5ft 7s 29 36 mph 1004.1mb 40f
3:00am 6ft 6s 29 40 mph 1004.9mb 42f
2:00am 6ft 6s 27 36 mph 1005.9mb 41f
1:00am 6ft 6s 25 31 mph 1006.6mb 41f
12:00am 5.5ft 10s 22 29 mph 1007.3mb 41f
Sat 03/25 11:00pm 6ft 5s 22 31 mph 1008mb 40f
10:00pm  -   -  22
mph
1008.4mb 41f
9:00pm 5.5ft 5s 27 31 mph 1008.7mb 42f
8:00pm 5ft 10s 25 31 mph 1009.4mb 42f
7:00pm 4.5ft 10s 27 31 mph 1009.9mb 42f
6:00pm 4ft 11s 18 22 mph 1010.6mb 42f
5:00pm 4.5ft 12s 18 22 mph 1011mb 43f
4:00pm 4ft 12s 20 22 mph 1010.9mb 42f
3:00pm 4.5ft 11s 20 25 mph 1011mb 43f
2:00pm 4.5ft 10s 16 18 mph 1011.1mb 43f
1:00pm 4.5ft 11s 13 18 mph 1010.9mb 43f
12:00pm 5ft 10s 16 18 mph 1010.5mb 43f
11:00am 5ft 11s 16 18 mph 1010.2mb 42f
10:00am 5ft 10s 13 18 mph 1009.8mb 42f
9:00am 5.5ft 11s 18 20 mph 1009.2mb 41f
8:00am 5ft 11s 20 22 mph 1008.3mb 42f
7:00am 5.5ft 12s 20 22 mph 1007.7mb 42f
6:00am 6ft 11s 18 22 mph 1007.2mb 42f
5:00am 6.5ft 11s 22 31 mph 1005.8mb 42f
4:00am 6.5ft 5s 25 29 mph 1004.3mb 42f
3:00am 6.5ft 12s 27 31 mph 1002.2mb 42f
2:00am 6ft 11s 25 29 mph 1000.5mb 42f
1:00am 5.5ft 11s 27 31 mph 998.9mb 42f
12:00am 6ft 10s 16 20 mph 998.2mb 45f
Fri 03/24 11:00pm 6ft 10s 13 16 mph 997.7mb 45f
10:00pm 6.5ft 11s 13 16 mph 997.2mb 45f
9:00pm 7.5ft 11s 13 18 mph 996.7mb 45f
8:00pm 8ft 10s 18 22 mph 996.2mb 45f
7:00pm 8.5ft 11s 25 29 mph 995.7mb 44f
6:00pm 8.5ft 9s 27 36 mph 995.6mb 44f
5:00pm 8.5ft 9s 27 36 mph 995.7mb 45f
4:00pm 8ft 8s 27 34 mph 995.8mb 44f
3:00pm 8ft 9s 27 34 mph 996.1mb 44f
2:00pm 8ft 10s 29 36 mph 996.1mb 44f
1:00pm 8.5ft 10s 27 34 mph 996.4mb 44f
12:00pm 8.5ft 10s 27 31 mph 996.7mb 43f
11:00am 8ft 9s 25 31 mph 997mb 43f
10:00am 9.5ft 10s 25 29 mph 997mb 44f
9:00am 9ft 10s 27 36 mph 996.8mb 44f
8:00am 10ft 10s 27 31 mph 997.1mb 44f
7:00am 10ft 11s 25 29 mph 997.6mb 44f
6:00am 10ft 11s 27 34 mph 997.7mb 44f
5:00am 9.5ft 10s 27 34 mph 998mb 44f
4:00am 9ft 11s 25 31 mph 998.4mb 44f
3:00am 8ft 11s 29 36 mph 998.6mb 43f
2:00am 6ft 8s 22 27 mph 999.1mb 42f
1:00am 5.5ft 7s 22 31 mph 999.3mb 42f
12:00am 5ft 8s 20 27 mph 1000.1mb 42f
Thu 03/23 11:00pm 5ft 8s 18 22 mph 1000.8mb 42f
10:00pm 5ft 7s 20 25 mph 1001.3mb 42f
9:00pm 5ft 7s 22 27 mph 1001.9mb 41f
8:00pm 5ft 7s 22 27 mph 1002.9mb 41f
7:00pm 5ft 6s 20 25 mph 1003.9mb 41f
6:00pm 5ft 5s 20 22 mph 1004.9mb 41f
5:00pm 5ft 6s 18 22 mph 1005.7mb 42f
4:00pm 5ft 6s 20 27 mph 1006.3mb 42f
3:00pm 5ft 5s 25 31 mph 1006.9mb 42f
2:00pm 4ft 8s 25 31 mph 1007.4mb 42f
1:00pm 3.5ft 8s 16 20 mph 1007.9mb 43f
12:00pm 3.5ft 5s 11 16 mph 1008.2mb 42f
11:00am 4ft 7s 16 20 mph 1007.9mb 43f
10:00am 3.5ft 6s 13 18 mph 1007.8mb 42f
9:00am 4ft 7s 9 13 mph 1007.5mb 42f
8:00am 3.5ft 6s 11 16 mph 1007.4mb 41f
7:00am 4ft 6s 11 13 mph 1006.7mb 40f
6:00am 4.5ft 6s 16 20 mph 1006.3mb 40f
5:00am 4ft 6s 18 20 mph 1005.3mb 40f
4:00am 4ft 7s 13 16 mph 1004.6mb 39f
3:00am 4.5ft 7s 16 20 mph 1003.9mb 41f
2:00am 4.5ft 6s 18 22 mph 1003.2mb 42f
1:00am 4.5ft 5s 18 22 mph 1002.7mb 40f
12:00am 4ft 8s 18 27 mph 1002.7mb 40f